Time;durP1;ratioP1;P1;durP2;ratioP2;P2;SDS_P1;SDS_P2;PMS_P1;PMS_P2;Temp;Humidity;BMP_temperature;BMP_pressure;BME280_temperature;BME280_humidity;BME280_pressure;Samples;Min_cycle;Max_cycle;Signal;HPM_P1;HPM_P2
2023/04/21 00:01:31;;;;;;;4.22;2.35;;;;;;;23.21;39.58;99616.59;4332786;33;33918;-63
2023/04/21 00:03:59;;;;;;;5.00;2.45;;;;;;;23.21;39.62;99614.69;4332654;33;34580;-63
2023/04/21 00:06:30;;;;;;;4.72;2.33;;;;;;;23.19;39.58;99608.66;4332669;33;33580;-63
2023/04/21 00:08:57;;;;;;;;;;;;;;;23.19;39.62;99607.84;4332600;33;34660;-62
2023/04/21 00:11:25;;;;;;;7.85;2.90;;;;;;;23.26;39.44;99609.41;4332347;33;34275;-63
2023/04/21 00:13:52;;;;;;;4.68;2.40;;;;;;;23.20;39.61;99609.50;4332196;33;33813;-63
2023/04/21 00:16:19;;;;;;;5.82;2.50;;;;;;;23.17;39.64;99606.19;4332334;33;33953;-63
2023/04/21 00:18:47;;;;;;;4.05;2.08;;;;;;;23.17;39.69;99606.19;4332866;33;33628;-62
2023/04/21 00:21:16;;;;;;;5.50;2.58;;;;;;;23.16;39.71;99601.78;4332837;33;33522;-62
2023/04/21 00:23:46;;;;;;;5.30;2.28;;;;;;;23.16;39.75;99612.66;4332167;33;34749;-62
2023/04/21 00:26:13;;;;;;;6.10;2.55;;;;;;;23.15;39.76;99602.03;4332062;33;34167;-62
2023/04/21 00:28:42;;;;;;;4.78;2.30;;;;;;;23.16;39.76;99606.41;4317704;33;33974;-62
2023/04/21 00:31:09;;;;;;;7.43;2.60;;;;;;;23.16;39.70;99598.22;4317749;33;34018;-63
2023/04/21 00:33:37;;;;;;;5.20;2.37;;;;;;;23.17;39.72;99591.72;4317960;33;33841;-63
2023/04/21 00:36:04;;;;;;;4.62;2.28;;;;;;;23.17;39.69;99598.03;4317738;33;33404;-63
2023/04/21 00:38:32;;;;;;;5.70;2.60;;;;;;;23.17;39.74;99600.75;4317498;33;33572;-63
2023/04/21 00:41:00;;;;;;;6.03;2.67;;;;;;;23.17;39.75;99592.56;4317916;33;34808;-63
2023/04/21 00:43:29;;;;;;;5.50;2.45;;;;;;;23.17;39.75;99598.03;4317889;33;34508;-63
2023/04/21 00:45:57;;;;;;;5.55;2.03;;;;;;;23.19;39.71;99602.41;4317702;33;33272;-63
2023/04/21 00:48:24;;;;;;;6.30;2.40;;;;;;;23.18;39.75;99601.56;4317645;33;34763;-63
2023/04/21 00:50:52;;;;;;;5.15;2.50;;;;;;;23.17;39.74;99598.03;4317485;33;34082;-63
2023/04/21 00:53:19;;;;;;;5.37;2.55;;;;;;;23.17;39.80;99600.75;4317608;33;33709;-63
2023/04/21 00:55:50;;;;;;;5.55;2.50;;;;;;;23.18;39.76;99593.41;4317582;33;33405;-63
2023/04/21 00:58:17;;;;;;;4.93;2.17;;;;;;;23.18;39.77;99590.69;4317403;33;34914;-63
2023/04/21 01:00:45;;;;;;;5.72;2.58;;;;;;;23.16;39.87;99587.34;4317475;33;34005;-63
2023/04/21 01:03:12;;;;;;;6.82;2.55;;;;;;;23.16;39.94;99590.91;4317563;33;33832;-63
2023/04/21 01:05:41;;;;;;;12.32;2.75;;;;;;;23.16;40.02;99584.63;4304244;33;34158;-63
2023/04/21 01:08:11;;;;;;;4.95;2.03;;;;;;;23.17;40.04;99591.72;4304944;33;33957;-63
2023/04/21 01:10:39;;;;;;;4.75;2.30;;;;;;;23.18;40.10;99590.69;4317577;33;33905;-63
2023/04/21 01:13:06;;;;;;;4.43;2.10;;;;;;;23.17;40.07;99581.69;4317297;33;33774;-63
2023/04/21 01:15:33;;;;;;;4.75;2.55;;;;;;;23.17;40.01;99589.00;4317559;33;34310;-63
2023/04/21 01:18:01;;;;;;;7.95;2.45;;;;;;;23.17;40.09;99587.13;4317404;33;34609;-63
2023/04/21 01:20:29;;;;;;;4.97;2.42;;;;;;;23.17;40.17;99587.13;4317381;33;34031;-63
2023/04/21 01:22:57;;;;;;;5.78;2.10;;;;;;;23.16;40.16;99590.06;4324622;33;34156;-62
2023/04/21 01:25:27;;;;;;;5.10;2.28;;;;;;;23.15;40.18;99591.97;4331072;33;34354;-62
2023/04/21 01:27:55;;;;;;;5.55;2.30;;;;;;;23.14;40.18;99593.03;4331964;33;34631;-62
2023/04/21 01:30:22;;;;;;;3.90;2.30;;;;;;;23.14;40.24;99587.59;4331957;33;34403;-62
2023/04/21 01:32:50;;;;;;;6.28;2.05;;;;;;;23.14;40.17;99592.19;4332083;33;34184;-63
2023/04/21 01:35:18;;;;;;;5.25;2.22;;;;;;;23.14;40.17;99586.75;4332185;33;33246;-63
2023/04/21 01:37:45;;;;;;;6.28;2.20;;;;;;;23.14;40.15;99587.59;4331967;33;34337;-63
2023/04/21 01:40:13;;;;;;;3.87;2.10;;;;;;;23.14;40.19;99573.97;4332110;33;34894;-63
2023/04/21 01:42:42;;;;;;;3.87;1.85;;;;;;;23.13;40.08;99583.22;4331901;33;33565;-63
2023/04/21 01:45:09;;;;;;;5.70;1.92;;;;;;;23.13;40.13;99577.75;4332268;33;34255;-63
2023/04/21 01:47:37;;;;;;;5.22;2.42;;;;;;;23.14;40.12;99578.59;4331846;33;34106;-62
2023/04/21 01:50:06;;;;;;;4.32;2.08;;;;;;;23.14;40.15;99576.69;4331661;33;34102;-63
2023/04/21 01:52:34;;;;;;;4.15;2.30;;;;;;;23.13;40.17;99574.22;4331811;33;33640;-63
2023/04/21 01:55:02;;;;;;;4.82;2.40;;;;;;;23.15;40.14;99578.34;4332219;33;32977;-62
2023/04/21 01:57:29;;;;;;;5.05;2.10;;;;;;;23.15;40.00;99583.78;4318374;33;33910;-63
2023/04/21 01:59:57;;;;;;;4.68;2.50;;;;;;;23.15;39.95;99581.06;4331789;33;34092;-62
2023/04/21 02:02:26;;;;;;;4.43;2.10;;;;;;;23.17;39.93;99583.56;4332099;33;34718;-62
2023/04/21 02:04:54;;;;;;;5.60;1.95;;;;;;;23.16;39.94;99580.00;4331706;33;34033;-63
2023/04/21 02:07:21;;;;;;;6.72;2.37;;;;;;;23.16;39.95;99588.16;4331740;33;34095;-62
2023/04/21 02:09:49;;;;;;;4.53;2.50;;;;;;;23.16;39.96;99587.34;4331797;33;33722;-63
2023/04/21 02:12:20;;;;;;;8.60;2.22;;;;;;;23.16;39.95;99582.72;4331789;33;34264;-63
2023/04/21 02:14:48;;;;;;;4.40;1.87;;;;;;;23.17;39.95;99583.56;4331657;33;34795;-62
2023/04/21 02:17:16;;;;;;;4.72;2.00;;;;;;;23.17;39.98;99586.28;4331504;33;34062;-63
2023/04/21 02:19:44;;;;;;;5.30;2.40;;;;;;;23.17;39.95;99586.28;4331588;33;34017;-63
2023/04/21 02:22:11;;;;;;;5.15;1.92;;;;;;;23.16;39.95;99585.44;4331520;33;34385;-62
2023/04/21 02:24:39;;;;;;;4.10;2.22;;;;;;;23.17;39.94;99587.13;4331249;33;33126;-63
2023/04/21 02:27:07;;;;;;;2.40;1.70;;;;;;;23.17;39.96;99591.72;4331773;33;33949;-63
2023/04/21 02:29:34;;;;;;;6.32;2.70;;;;;;;23.17;39.95;99595.31;4331502;33;33980;-63
2023/04/21 02:32:02;;;;;;;7.50;2.45;;;;;;;23.17;39.94;99598.03;4331184;33;34759;-63
2023/04/21 02:34:50;;;;;;;5.22;2.00;;;;;;;23.17;39.96;99586.28;4318110;33;33102;-62
2023/04/21 02:37:17;;;;;;;4.50;2.00;;;;;;;23.18;39.93;99590.69;4332985;33;34716;-63
2023/04/21 02:39:44;;;;;;;3.90;2.10;;;;;;;23.18;39.94;99582.53;4333095;33;34164;-63
2023/04/21 02:42:12;;;;;;;3.25;1.87;;;;;;;23.17;39.94;99589.84;4333108;33;34197;-63
2023/04/21 02:44:41;;;;;;;3.92;2.10;;;;;;;23.17;39.98;99592.56;4332950;33;34206;-63
2023/04/21 02:47:09;;;;;;;4.00;1.87;;;;;;;23.17;39.96;99587.13;4333126;33;34806;-63
2023/04/21 02:49:41;;;;;;;6.10;2.10;;;;;;;23.17;39.95;99589.00;4333053;33;34023;-63
2023/04/21 02:52:08;;;;;;;6.18;2.12;;;;;;;23.16;39.93;99590.06;4332721;33;33812;-63
2023/04/21 02:54:36;;;;;;;4.80;2.10;;;;;;;23.16;39.93;99590.91;4333091;33;33467;-63
2023/04/21 02:57:03;;;;;;;2.95;1.77;;;;;;;23.15;39.99;99591.97;4333006;33;33231;-62
2023/04/21 02:59:32;;;;;;;3.87;2.12;;;;;;;23.14;40.09;99587.59;4332926;33;33893;-63
2023/04/21 03:02:00;;;;;;;3.92;2.10;;;;;;;23.13;40.14;99591.38;4332928;33;33785;-62
2023/04/21 03:04:28;;;;;;;4.75;2.10;;;;;;;23.13;40.17;99594.09;4333089;33;33895;-62
2023/04/21 03:06:57;;;;;;;4.62;2.12;;;;;;;23.13;40.17;99593.25;4333073;33;33997;-62
2023/04/21 03:09:24;;;;;;;3.70;1.95;;;;;;;23.13;40.14;99585.94;4333078;33;35016;-63
2023/04/21 03:11:52;;;;;;;4.60;1.83;;;;;;;23.13;40.18;99596.00;4332885;33;34391;-62
2023/04/21 03:14:19;;;;;;;3.50;1.77;;;;;;;23.13;40.25;99593.25;4332586;33;33928;-62
2023/04/21 03:16:47;;;;;;;4.18;2.40;;;;;;;23.13;40.24;99596.00;4332902;33;33648;-63
2023/04/21 03:19:15;;;;;;;6.22;2.15;;;;;;;23.12;40.28;99597.03;4332971;33;33826;-63
2023/04/21 03:21:43;;;;;;;3.12;1.75;;;;;;;23.12;40.30;99589.69;4332853;33;34553;-63
2023/04/21 03:24:11;;;;;;;4.55;2.05;;;;;;;23.13;40.31;99585.09;4318189;33;34420;-63
2023/04/21 03:26:42;;;;;;;4.40;2.15;;;;;;;23.13;40.33;99590.53;4318219;33;35143;-63
2023/04/21 03:29:09;;;;;;;4.10;2.15;;;;;;;23.12;40.37;99586.97;4318393;33;34038;-63
2023/04/21 03:31:37;;;;;;;3.55;1.80;;;;;;;23.11;40.37;99585.31;4318175;33;33573;-63
2023/04/21 03:34:04;;;;;;;3.20;1.95;;;;;;;23.10;40.35;99593.72;4318052;33;33584;-63
2023/04/21 03:36:32;;;;;;;3.45;1.92;;;;;;;23.10;40.35;99588.28;4318350;33;34913;-62
2023/04/21 03:39:00;;;;;;;4.00;2.05;;;;;;;23.10;40.36;99591.81;4318427;33;35245;-63
2023/04/21 03:41:45;;;;;;;3.67;2.03;;;;;;;23.09;40.34;99590.16;4318114;33;33699;-63
2023/04/21 03:44:13;;;;;;;6.00;2.00;;;;;;;23.09;40.36;99595.59;4318164;33;33585;-62
2023/04/21 03:46:41;;;;;;;4.32;2.03;;;;;;;23.08;40.41;99596.69;4317353;33;33990;-63
2023/04/21 03:49:08;;;;;;;6.35;1.95;;;;;;;23.08;40.44;99601.25;4317726;33;34005;-62
2023/04/21 03:51:36;;;;;;;6.75;2.53;;;;;;;23.08;40.41;99602.13;4317881;33;34007;-63
2023/04/21 03:54:04;;;;;;;5.03;2.20;;;;;;;23.09;40.41;99608.38;4317730;33;34282;-63
2023/04/21 03:56:31;;;;;;;6.82;2.10;;;;;;;23.09;40.47;99601.06;4317887;33;34556;-63
2023/04/21 03:58:59;;;;;;;11.05;2.35;;;;;;;23.10;40.32;99610.03;4318094;33;33528;-63
2023/04/21 04:01:27;;;;;;;4.72;2.10;;;;;;;23.10;40.33;99601.88;4317709;33;33891;-64
2023/04/21 04:03:55;;;;;;;5.68;2.37;;;;;;;23.09;40.14;99598.34;4317882;33;33912;-64
2023/04/21 04:06:23;;;;;;;4.28;1.87;;;;;;;23.10;39.99;99612.75;4317786;33;34874;-64
2023/04/21 04:08:50;;;;;;;4.28;1.87;;;;;;;23.09;40.00;99611.94;4317799;33;33791;-63
2023/04/21 04:11:18;;;;;;;3.75;1.90;;;;;;;23.08;39.96;99614.88;4317830;33;33936;-63
2023/04/21 04:13:45;;;;;;;5.43;1.90;;;;;;;23.08;39.89;99613.00;4317823;33;33483;-61
2023/04/21 04:16:13;;;;;;;6.53;1.90;;;;;;;23.07;39.89;99622.19;4317667;33;33870;-63
2023/04/21 04:18:41;;;;;;;4.60;1.80;;;;;;;23.06;39.89;99626.00;4317921;33;35034;-64
2023/04/21 04:21:08;;;;;;;5.53;1.70;;;;;;;23.05;39.87;99624.34;4318081;33;33947;-62
2023/04/21 04:23:36;;;;;;;5.35;1.85;;;;;;;23.05;39.86;99626.22;4328885;33;33405;-63
2023/04/21 04:26:04;;;;;;;4.82;2.30;;;;;;;23.04;39.82;99630.84;4332414;33;34400;-61
2023/04/21 04:28:32;;;;;;;13.68;2.80;;;;;;;23.05;39.77;99631.66;4332340;33;34119;-63
2023/04/21 04:31:00;;;;;;;8.95;2.50;;;;;;;23.04;39.85;99627.28;4331909;33;34026;-64
2023/04/21 04:33:28;;;;;;;5.65;2.45;;;;;;;23.04;39.88;99641.72;4330431;33;33246;-64
2023/04/21 04:35:57;;;;;;;8.32;2.53;;;;;;;23.04;39.89;99633.56;4330552;33;34506;-64
2023/04/21 04:38:24;;;;;;;11.32;2.90;;;;;;;23.05;39.91;99640.66;4330182;33;35284;-64
2023/04/21 04:40:53;;;;;;;6.90;2.72;;;;;;;23.05;39.92;99645.28;4330430;33;33974;-61
2023/04/21 04:43:21;;;;;;;8.30;2.92;;;;;;;23.04;39.95;99641.72;4330436;33;34594;-64
2023/04/21 04:45:48;;;;;;;8.23;3.00;;;;;;;23.05;39.99;99642.56;4330567;33;34119;-61
2023/04/21 04:48:16;;;;;;;10.70;2.75;;;;;;;23.05;39.99;99637.13;4330532;33;34551;-64
2023/04/21 04:50:44;;;;;;;9.10;2.67;;;;;;;23.05;40.02;99639.84;4332263;33;33982;-63
2023/04/21 04:53:11;;;;;;;9.18;3.00;;;;;;;23.05;40.03;99643.37;4332177;33;34351;-63
2023/04/21 04:55:39;;;;;;;8.60;2.35;;;;;;;23.05;40.04;99634.41;4332358;33;33986;-62
2023/04/21 04:58:06;;;;;;;6.28;2.70;;;;;;;23.04;40.11;99636.28;4332042;33;34877;-64
2023/04/21 05:00:35;;;;;;;6.35;2.40;;;;;;;23.05;40.11;99637.13;4332137;33;33699;-64
2023/04/21 05:03:03;;;;;;;9.20;2.90;;;;;;;23.04;40.10;99633.56;4331404;33;33462;-63
2023/04/21 05:05:31;;;;;;;7.90;2.42;;;;;;;23.06;40.10;99636.03;4332460;33;33914;-62
2023/04/21 05:07:59;;;;;;;6.25;2.47;;;;;;;23.05;40.13;99639.84;4332048;33;34141;-63
2023/04/21 05:10:26;;;;;;;8.30;2.80;;;;;;;23.04;40.14;99641.72;4332347;33;34144;-64
2023/04/21 05:12:54;;;;;;;5.00;2.30;;;;;;;23.06;40.14;99641.50;4332200;33;34261;-63
2023/04/21 05:15:21;;;;;;;6.15;2.58;;;;;;;23.04;40.14;99633.56;4332077;33;33997;-63
2023/04/21 05:17:49;;;;;;;5.95;2.67;;;;;;;23.04;40.18;99640.91;4332573;33;34046;-61
2023/04/21 05:20:17;;;;;;;6.25;2.70;;;;;;;23.04;40.23;99630.84;4332229;33;34176;-64
2023/04/21 05:22:44;;;;;;;7.37;2.60;;;;;;;23.04;40.23;99636.28;4332061;33;33512;-62
2023/04/21 05:25:14;;;;;;;7.05;2.58;;;;;;;23.05;40.27;99640.66;4332204;33;34590;-63
2023/04/21 05:27:42;;;;;;;4.62;2.53;;;;;;;23.05;40.26;99637.94;4332173;33;35039;-64
2023/04/21 05:30:10;;;;;;;5.75;2.37;;;;;;;23.05;40.22;99639.84;4331965;33;33787;-64
2023/04/21 05:32:37;;;;;;;7.47;2.70;;;;;;;23.05;40.28;99645.28;4332009;33;34352;-63
2023/04/21 05:35:05;;;;;;;6.90;2.85;;;;;;;23.05;40.29;99648.00;4332057;33;34022;-64
2023/04/21 05:37:33;;;;;;;7.37;2.67;;;;;;;23.05;40.27;99642.56;4331883;33;34030;-64
2023/04/21 05:40:01;;;;;;;6.53;2.42;;;;;;;23.05;40.28;99653.44;4332030;33;34110;-63
2023/04/21 05:42:29;;;;;;;6.18;2.35;;;;;;;23.04;40.33;99647.16;4331871;33;33470;-61
2023/04/21 05:44:56;;;;;;;7.05;2.55;;;;;;;23.05;40.32;99648.81;4331967;33;34959;-63
2023/04/21 05:47:24;;;;;;;5.05;2.50;;;;;;;23.05;40.29;99645.28;4331943;33;34923;-64
2023/04/21 05:49:52;;;;;;;8.57;2.60;;;;;;;23.05;40.27;99648.81;4331885;33;33802;-61
2023/04/21 05:52:20;;;;;;;5.30;2.85;;;;;;;23.04;40.29;99649.87;4331932;33;33502;-64
2023/04/21 05:54:48;;;;;;;7.03;2.65;;;;;;;23.05;40.27;99648.00;4331673;33;34709;-62
2023/04/21 05:57:16;;;;;;;6.15;2.80;;;;;;;23.05;40.32;99656.16;4331633;33;34101;-62
2023/04/21 05:59:44;;;;;;;7.82;2.65;;;;;;;23.05;40.32;99656.16;4331867;33;34630;-64
2023/04/21 06:02:11;;;;;;;7.37;2.50;;;;;;;23.05;40.29;99658.87;4331762;33;34404;-62
2023/04/21 06:04:39;;;;;;;6.53;2.78;;;;;;;23.05;40.33;99662.44;4331608;33;34534;-62
2023/04/21 06:07:08;;;;;;;3.95;2.15;;;;;;;23.04;40.30;99658.06;4331794;33;34017;-64
2023/04/21 06:09:36;;;;;;;5.45;2.40;;;;;;;23.04;40.30;99658.06;4330429;33;33810;-61
2023/04/21 06:12:03;;;;;;;6.18;2.50;;;;;;;23.04;40.33;99659.94;4330981;33;34293;-64
2023/04/21 06:14:31;;;;;;;4.35;2.28;;;;;;;23.04;40.32;99658.06;4331026;33;34891;-62
2023/04/21 06:16:58;;;;;;;4.95;2.30;;;;;;;23.04;40.30;99652.63;4331079;33;33818;-62
2023/04/21 06:19:26;;;;;;;4.90;2.20;;;;;;;23.04;40.29;99658.06;4317913;33;34446;-63
2023/04/21 06:21:55;;;;;;;4.93;2.40;;;;;;;23.04;40.32;99658.06;4331347;33;32460;-62
2023/04/21 06:24:25;;;;;;;6.53;2.73;;;;;;;23.03;40.30;99656.38;4318408;33;33755;-61
2023/04/21 06:26:53;;;;;;;5.68;2.90;;;;;;;23.04;40.28;99657.22;4331451;33;33927;-62
2023/04/21 06:29:21;;;;;;;5.07;2.20;;;;;;;23.03;40.26;99656.38;4331541;33;34918;-62
2023/04/21 06:31:48;;;;;;;6.68;2.50;;;;;;;23.04;40.25;99662.66;4331475;33;33615;-62
2023/04/21 06:34:16;;;;;;;5.30;2.40;;;;;;;23.04;40.25;99657.22;4331138;33;34584;-64
2023/04/21 06:36:44;;;;;;;6.60;2.50;;;;;;;23.03;40.26;99650.94;4331384;33;33970;-63
2023/04/21 06:39:12;;;;;;;5.20;2.67;;;;;;;23.04;40.27;99659.94;4330643;33;33912;-63
2023/04/21 06:41:39;;;;;;;5.22;2.40;;;;;;;23.03;40.26;99652.81;4331189;33;32964;-64
2023/04/21 06:44:07;;;;;;;5.55;2.28;;;;;;;23.03;40.26;99656.38;4331191;33;33993;-65
2023/04/21 06:46:34;;;;;;;6.87;2.47;;;;;;;23.03;40.24;99658.25;4331314;33;34977;-64
2023/04/21 06:49:02;;;;;;;7.30;2.33;;;;;;;23.02;40.25;99657.44;4331008;33;34556;-64
2023/04/21 06:51:31;;;;;;;4.85;1.92;;;;;;;23.03;40.28;99652.81;4331058;33;34322;-64
2023/04/21 06:53:58;;;;;;;5.70;2.20;;;;;;;23.03;40.27;99655.53;4331272;33;33974;-63
2023/04/21 06:56:26;;;;;;;5.35;2.20;;;;;;;23.04;40.27;99651.78;4330911;33;33783;-63
2023/04/21 06:58:54;;;;;;;6.32;2.55;;;;;;;23.02;40.31;99648.44;4330948;33;34163;-64
2023/04/21 07:01:23;;;;;;;3.90;2.05;;;;;;;23.02;40.29;99649.28;4330783;33;34164;-65
2023/04/21 07:03:51;;;;;;;7.53;2.20;;;;;;;23.02;40.30;99637.56;4330357;33;34097;-63
2023/04/21 07:06:18;;;;;;;5.40;2.60;;;;;;;23.02;40.27;99643.81;4331137;33;33838;-62
2023/04/21 07:08:46;;;;;;;6.37;2.20;;;;;;;23.02;40.30;99643.81;4330984;33;34958;-62
2023/04/21 07:11:13;;;;;;;6.62;2.12;;;;;;;23.02;40.31;99643.81;4331335;33;33882;-65
2023/04/21 07:13:41;;;;;;;4.72;2.55;;;;;;;23.02;40.33;99643.81;4331108;33;33555;-65
2023/04/21 07:16:08;;;;;;;6.15;2.53;;;;;;;23.01;40.36;99647.62;4331090;33;33620;-61
2023/04/21 07:18:38;;;;;;;5.93;2.40;;;;;;;23.01;40.36;99644.91;4330897;33;34011;-64
2023/04/21 07:21:06;;;;;;;7.00;2.50;;;;;;;23.01;40.39;99644.06;4331587;33;33073;-64
2023/04/21 07:23:33;;;;;;;5.72;2.30;;;;;;;23.02;40.37;99643.81;4332805;33;34866;-63
2023/04/21 07:26:01;;;;;;;4.82;2.42;;;;;;;23.02;40.38;99651.16;4332998;33;35069;-64
2023/04/21 07:28:28;;;;;;;6.00;2.37;;;;;;;23.01;40.39;99642.16;4332987;33;34097;-62
2023/04/21 07:30:56;;;;;;;5.20;2.50;;;;;;;23.02;40.41;99643.81;4332819;33;33508;-62
2023/04/21 07:33:24;;;;;;;4.68;2.35;;;;;;;23.02;40.39;99649.28;4332840;33;33654;-61
2023/04/21 07:35:51;;;;;;;4.40;2.53;;;;;;;23.02;40.40;99646.53;4332838;33;34860;-62
2023/04/21 07:38:19;;;;;;;6.10;2.58;;;;;;;23.02;40.32;99643.81;4332613;33;34740;-60
2023/04/21 07:40:46;;;;;;;4.43;2.22;;;;;;;23.04;40.24;99649.06;4333012;33;33367;-62
2023/04/21 07:43:14;;;;;;;5.53;2.42;;;;;;;23.03;40.08;99640.03;4332980;33;33589;-62
2023/04/21 07:45:41;;;;;;;7.93;2.83;;;;;;;23.04;39.91;99646.34;4332881;33;34003;-61
2023/04/21 07:48:09;;;;;;;5.85;2.40;;;;;;;23.05;39.75;99643.37;4333027;33;34082;-63
2023/04/21 07:50:37;;;;;;;6.00;2.40;;;;;;;23.05;39.66;99643.37;4332657;33;33761;-61
2023/04/21 07:53:04;;;;;;;6.25;2.67;;;;;;;23.07;39.64;99645.88;4332581;33;34326;-62
2023/04/21 07:55:33;;;;;;;6.45;2.65;;;;;;;23.07;39.64;99654.84;4332877;33;34095;-60
2023/04/21 07:58:00;;;;;;;7.75;2.87;;;;;;;23.08;39.64;99645.66;4332777;33;34153;-62
2023/04/21 08:00:27;;;;;;;7.60;2.60;;;;;;;23.11;39.65;99652.53;4332464;33;33629;-62
2023/04/21 08:02:55;;;;;;;5.70;2.80;;;;;;;23.11;39.64;99649.78;4332797;33;34923;-60
2023/04/21 08:05:23;;;;;;;5.85;2.40;;;;;;;23.13;39.58;99655.88;4332638;33;33861;-63
2023/04/21 08:07:54;;;;;;;7.00;2.58;;;;;;;23.13;39.50;99648.53;4332610;33;33555;-63
2023/04/21 08:10:22;;;;;;;5.57;2.75;;;;;;;23.13;39.43;99643.09;4332756;33;34065;-62
2023/04/21 08:12:50;;;;;;;6.60;2.53;;;;;;;23.14;39.36;99652.91;4332624;33;34062;-60
2023/04/21 08:15:17;;;;;;;6.70;2.72;;;;;;;23.15;39.34;99651.84;4332430;33;34849;-62
2023/04/21 08:17:45;;;;;;;7.20;2.42;;;;;;;23.17;39.36;99652.47;4332697;33;34053;-62
2023/04/21 08:20:13;;;;;;;7.85;2.90;;;;;;;23.17;39.40;99648.88;4332661;33;34338;-62
2023/04/21 08:22:40;;;;;;;7.57;2.50;;;;;;;23.19;39.47;99654.12;4332714;33;33927;-63
2023/04/21 08:25:08;;;;;;;10.77;3.40;;;;;;;23.20;39.43;99650.31;4332561;33;33632;-62
2023/04/21 08:27:38;;;;;;;11.07;2.80;;;;;;;23.19;38.83;99660.38;4332640;33;34715;-62
2023/04/21 08:30:06;;;;;;;8.98;3.00;;;;;;;23.19;38.43;99656.84;4332365;33;33160;-62
2023/04/21 08:32:34;;;;;;;9.48;3.60;;;;;;;23.17;38.17;99655.19;4332134;33;34090;-60
2023/04/21 08:35:02;;;;;;;8.05;3.12;;;;;;;23.16;38.24;99648.03;4332337;33;33650;-62
2023/04/21 08:37:29;;;;;;;10.70;3.30;;;;;;;23.16;38.26;99648.03;4318859;33;33859;-62
2023/04/21 08:39:57;;;;;;;9.98;3.47;;;;;;;23.15;38.26;99640.94;4332593;33;33059;-62
2023/04/21 08:42:25;;;;;;;10.55;2.60;;;;;;;23.16;38.10;99645.31;4332416;33;33235;-60
2023/04/21 08:44:52;;;;;;;9.90;2.97;;;;;;;23.15;38.26;99645.56;4332351;33;33722;-61
2023/04/21 08:47:20;;;;;;;14.00;2.90;;;;;;;23.14;38.17;99639.28;4332591;33;34960;-65
2023/04/21 08:49:47;;;;;;;9.98;3.80;;;;;;;23.16;37.70;99636.34;4319010;33;33751;-64
2023/04/21 08:52:14;;;;;;;10.77;3.37;;;;;;;23.16;37.04;99636.34;4319228;33;34687;-64
2023/04/21 08:54:42;;;;;;;9.60;3.08;;;;;;;23.13;37.18;99637.63;4331934;33;34052;-65
2023/04/21 08:57:10;;;;;;;11.15;3.20;;;;;;;23.12;36.36;99644.13;4332069;33;34109;-65
2023/04/21 08:59:43;;;;;;;10.70;3.30;;;;;;;23.11;35.98;99636.19;4332527;33;34092;-64
2023/04/21 09:02:20;;;;;;;12.40;3.70;;;;;;;23.09;36.11;99643.75;4331996;33;33736;-65
2023/04/21 09:04:50;;;;;;;10.85;3.12;;;;;;;23.08;35.97;99636.63;4332169;33;33916;-65
2023/04/21 09:07:34;;;;;;;8.88;3.20;;;;;;;23.08;36.24;99629.34;4332540;33;33833;-64
2023/04/21 09:10:03;;;;;;;8.95;3.30;;;;;;;23.09;36.30;99624.72;4332108;33;33519;-65
2023/04/21 09:12:31;;;;;;;8.35;2.87;;;;;;;23.05;35.55;99637.13;4319043;33;33998;-63
2023/04/21 09:14:59;;;;;;;12.73;3.80;;;;;;;23.05;35.31;99639.84;4332109;33;34342;-65
2023/04/21 09:17:31;;;;;;;13.05;3.42;;;;;;;23.03;35.10;99634.59;4331222;33;34702;-64
2023/04/21 09:20:15;;;;;;;8.98;2.85;;;;;;;23.04;34.98;99632.75;4332331;33;34219;-63
2023/04/21 09:22:43;;;;;;;11.57;3.58;;;;;;;23.03;35.26;99629.16;4332012;33;33633;-65
2023/04/21 09:25:14;;;;;;;7.37;3.62;;;;;;;23.00;34.77;99632.34;4332187;33;33259;-64
2023/04/21 09:27:42;;;;;;;10.50;3.62;;;;;;;22.99;34.48;99621.69;4332029;33;33682;-65
2023/04/21 09:30:10;;;;;;;11.50;3.50;;;;;;;23.00;34.60;99628.81;4332112;33;33486;-65
2023/04/21 09:32:38;;;;;;;10.35;3.65;;;;;;;22.97;34.89;99630.06;4332084;33;34062;-63
2023/04/21 09:35:10;;;;;;;9.68;3.47;;;;;;;22.98;34.46;99620.03;4331658;33;34952;-65
2023/04/21 09:37:38;;;;;;;9.93;3.20;;;;;;;22.96;34.37;99620.25;4331927;33;34144;-65
2023/04/21 09:40:06;;;;;;;8.50;3.03;;;;;;;22.97;34.07;99618.38;4318886;33;33651;-63
2023/04/21 09:42:34;;;;;;;8.98;3.58;;;;;;;22.95;33.51;99615.06;4331926;33;33690;-65
2023/04/21 09:45:08;;;;;;;9.90;3.75;;;;;;;22.95;33.17;99605.00;4330750;33;34906;-64
2023/04/21 09:47:57;;;;;;;;;;;;;;;22.94;33.63;99607.94;4332175;33;34557;-64
2023/04/21 09:50:24;;;;;;;6.87;3.03;;;;;;;23.02;33.29;99605.72;4332164;33;33310;-64
2023/04/21 09:53:15;;;;;;;9.35;3.83;;;;;;;22.95;33.96;99610.44;4331764;33;33420;-63
2023/04/21 09:55:43;;;;;;;8.55;3.60;;;;;;;22.93;33.41;99601.66;4331632;33;34157;-67
2023/04/21 09:58:11;;;;;;;11.02;3.55;;;;;;;22.91;32.96;99607.34;4318473;33;34704;-64
2023/04/21 10:00:39;;;;;;;9.02;3.25;;;;;;;22.90;32.68;99605.69;4318417;33;33127;-64
2023/04/21 10:03:10;;;;;;;6.97;3.60;;;;;;;22.89;32.58;99598.56;4331844;33;33937;-64
2023/04/21 10:05:37;;;;;;;10.27;3.90;;;;;;;22.89;32.88;99603.16;4318670;33;34915;-64
2023/04/21 10:08:10;;;;;;;9.77;3.72;;;;;;;22.89;32.57;99604.00;4332075;33;34844;-64
2023/04/21 10:10:38;;;;;;;9.50;4.20;;;;;;;22.88;33.02;99593.31;4306857;33;33502;-64
2023/04/21 10:13:06;;;;;;;6.97;3.50;;;;;;;22.90;32.79;99593.97;4318403;33;34741;-65
2023/04/21 10:15:36;;;;;;;6.20;3.30;;;;;;;22.88;32.28;99587.88;4306240;33;34952;-64
2023/04/21 10:18:17;;;;;;;10.57;3.85;;;;;;;22.88;32.51;99596.03;4331705;33;33761;-65
2023/04/21 10:21:10;;;;;;;7.50;3.97;;;;;;;22.89;32.44;99593.12;4331723;33;33170;-65
2023/04/21 10:23:42;;;;;;;7.53;3.70;;;;;;;22.89;32.09;99595.00;4331429;33;33836;-64
2023/04/21 10:26:21;;;;;;;8.40;3.58;;;;;;;22.87;32.20;99589.78;4331480;33;34003;-63
2023/04/21 10:28:59;;;;;;;10.30;4.00;;;;;;;22.89;31.92;99587.66;4331344;33;34898;-63
2023/04/21 10:31:52;;;;;;;7.78;3.35;;;;;;;22.88;32.34;99588.69;4306824;33;33499;-64
2023/04/21 10:34:36;;;;;;;7.05;4.10;;;;;;;22.89;33.10;99586.84;4294384;33;35550;-64
2023/04/21 10:37:04;;;;;;;9.57;3.83;;;;;;;22.89;33.25;99582.22;4317563;33;34014;-63
2023/04/21 10:39:47;;;;;;;8.52;3.72;;;;;;;22.87;33.12;99572.63;4317875;33;34696;-63
2023/04/21 10:42:14;;;;;;;7.85;4.07;;;;;;;22.91;33.39;99582.03;4331760;33;33057;-64
2023/04/21 10:44:42;;;;;;;6.62;3.55;;;;;;;22.90;33.08;99572.22;4331124;33;33722;-65
2023/04/21 10:47:10;;;;;;;6.65;3.28;;;;;;;22.89;33.33;99574.06;4306020;33;34119;-62
2023/04/21 10:49:38;;;;;;;7.18;3.35;;;;;;;22.92;33.64;99559.19;4331414;33;34755;-62
2023/04/21 10:52:07;;;;;;;9.63;3.85;;;;;;;22.90;33.66;99554.00;4331005;33;33618;-64
2023/04/21 10:54:46;;;;;;;9.70;4.03;;;;;;;22.93;33.80;99560.84;4331200;33;33528;-63
2023/04/21 10:57:18;;;;;;;7.75;3.90;;;;;;;22.96;33.89;99556.84;4331902;33;34466;-63
2023/04/21 10:59:46;;;;;;;5.65;3.33;;;;;;;22.95;33.99;99558.75;4332973;33;34655;-64
2023/04/21 11:02:15;;;;;;;7.80;3.70;;;;;;;22.95;34.15;99553.31;4319860;33;33734;-60
2023/04/21 11:04:48;;;;;;;8.63;3.55;;;;;;;22.97;34.30;99555.78;4319691;33;34642;-64
2023/04/21 11:07:22;;;;;;;12.45;4.07;;;;;;;22.98;34.41;99552.81;4333067;33;34131;-64
2023/04/21 11:09:58;;;;;;;10.70;4.07;;;;;;;22.99;34.54;99548.22;4332842;33;33910;-64
2023/04/21 11:12:28;;;;;;;9.70;4.35;;;;;;;23.00;34.62;99544.44;4319894;33;33653;-63
2023/04/21 11:14:55;;;;;;;8.05;4.22;;;;;;;22.99;33.96;99549.06;4333160;33;33506;-63
2023/04/21 11:17:23;;;;;;;9.05;3.70;;;;;;;23.00;33.47;99555.34;4332895;33;34133;-62
2023/04/21 11:19:52;;;;;;;7.37;3.90;;;;;;;23.00;33.49;99549.91;4332752;33;34914;-61
2023/04/21 11:22:24;;;;;;;6.35;3.83;;;;;;;22.99;33.50;99549.06;4332817;33;33725;-63
2023/04/21 11:24:55;;;;;;;7.57;3.75;;;;;;;23.00;33.64;99547.19;4305350;33;34394;-64
2023/04/21 11:27:22;;;;;;;7.30;4.37;;;;;;;22.99;33.77;99545.50;4318303;33;33601;-63
2023/04/21 11:29:50;;;;;;;6.03;3.60;;;;;;;22.97;33.75;99551.16;4304883;33;34024;-63
2023/04/21 11:32:17;;;;;;;8.15;4.37;;;;;;;22.97;33.64;99548.44;4318536;33;33694;-64
2023/04/21 11:34:45;;;;;;;9.90;3.70;;;;;;;22.97;33.21;99544.91;4318264;33;33991;-62
2023/04/21 11:37:25;;;;;;;6.62;4.05;;;;;;;22.96;33.23;99535.91;4317988;33;33980;-64
2023/04/21 11:39:59;;;;;;;10.05;4.70;;;;;;;22.97;32.88;99534.00;4305489;33;34685;-60
2023/04/21 11:42:27;;;;;;;6.20;3.95;;;;;;;22.98;33.02;99538.41;4304764;33;34270;-65